Time;durP1;ratioP1;P1;durP2;ratioP2;P2;SDS_P1;SDS_P2;PMS_P1;PMS_P2;Temp;Humidity;BMP_temperature;BMP_pressure;BME280_temperature;BME280_humidity;BME280_pressure;Samples;Min_cycle;Max_cycle;Signal;HPM_P1;HPM_P2
2022/05/26 00:00:34;;;;;;;5.93;2.63;;;;;;;12.07;100.00;155556.22;4866029;29;20679;-76
2022/05/26 00:03:00;;;;;;;7.63;2.70;;;;;;;12.07;100.00;155556.22;4884225;29;20049;-77
2022/05/26 00:05:27;;;;;;;6.78;2.67;;;;;;;12.05;100.00;155551.06;4872420;29;20041;-76
2022/05/26 00:07:53;;;;;;;10.27;3.38;;;;;;;12.01;100.00;155540.81;4872048;29;20049;-75
2022/05/26 00:10:20;;;;;;;8.48;3.03;;;;;;;12.04;100.00;155549.81;4868227;29;20111;-76
2022/05/26 00:12:46;;;;;;;4.65;2.85;;;;;;;12.19;100.00;155585.78;4872184;29;20541;-75
2022/05/26 00:15:12;;;;;;;8.95;3.10;;;;;;;12.15;100.00;155576.78;4875255;29;20116;-74
2022/05/26 00:17:38;;;;;;;3.92;2.80;;;;;;;12.15;100.00;155575.47;4870005;29;20052;-76
2022/05/26 00:20:06;;;;;;;8.60;3.50;;;;;;;12.11;100.00;155565.22;4873824;29;20032;-77
2022/05/26 00:22:32;;;;;;;9.15;3.50;;;;;;;12.16;100.00;155578.06;4863375;29;20504;-76
2022/05/26 00:24:58;;;;;;;6.28;3.00;;;;;;;12.16;100.00;155579.34;4865348;29;20046;-75
2022/05/26 00:27:24;;;;;;;8.68;3.35;;;;;;;12.17;100.00;155580.66;4852890;29;20048;-74
2022/05/26 00:29:50;;;;;;;7.43;3.90;;;;;;;12.23;100.00;155596.06;4864785;29;20041;-75
2022/05/26 00:32:16;;;;;;;5.70;3.30;;;;;;;12.12;100.00;155567.78;4864422;29;20080;-76
2022/05/26 00:34:41;;;;;;;7.50;3.95;;;;;;;12.05;100.00;155552.41;4866285;29;20037;-76
2022/05/26 00:37:09;;;;;;;9.23;3.97;;;;;;;12.07;100.00;155556.22;4866307;29;20045;-74
2022/05/26 00:39:36;;;;;;;7.28;4.47;;;;;;;12.15;100.00;155576.78;4862154;29;20045;-76
2022/05/26 00:42:04;;;;;;;10.38;4.15;;;;;;;12.17;100.00;155581.91;4868339;29;20064;-76
2022/05/26 00:44:31;;;;;;;12.73;4.32;;;;;;;12.18;100.00;155583.19;4870917;29;20055;-75
2022/05/26 00:47:15;;;;;;;8.57;4.40;;;;;;;12.11;100.00;155566.53;4874969;29;20029;-75
2022/05/26 00:49:47;;;;;;;5.47;4.40;;;;;;;11.98;100.00;155533.09;4875974;29;20531;-77
2022/05/26 00:52:19;;;;;;;9.53;4.60;;;;;;;12.06;100.00;155554.94;4876926;29;20121;-75
2022/05/26 00:54:46;;;;;;;8.30;4.57;;;;;;;11.97;100.00;155531.81;4888457;29;20024;-75
2022/05/26 00:57:18;;;;;;;7.38;5.55;;;;;;;12.05;100.00;155551.06;4901916;29;20086;-75
2022/05/26 01:00:25;;;;;;;5.85;4.80;;;;;;;12.01;100.00;155542.09;4910047;29;20049;-76
2022/05/26 01:03:13;;;;;;;11.15;5.32;;;;;;;12.03;100.00;155547.22;4874081;29;20281;-74
2022/05/26 01:05:46;;;;;;;9.45;5.32;;;;;;;12.02;100.00;155543.41;4875558;29;20053;-77
2022/05/26 01:08:29;;;;;;;10.18;6.30;;;;;;;12.02;100.00;155544.69;4882969;29;20064;-76
2022/05/26 01:10:54;;;;;;;10.98;5.80;;;;;;;12.00;100.00;155539.53;4889282;29;20041;-77
2022/05/26 01:13:21;;;;;;;8.57;6.47;;;;;;;11.99;100.00;155535.69;4876536;29;20037;-79
2022/05/26 01:15:57;;;;;;;11.25;6.40;;;;;;;12.09;100.00;155561.34;4887546;29;20029;-75
2022/05/26 01:18:41;;;;;;;9.85;6.75;;;;;;;12.18;100.00;155583.19;4868298;29;20128;-75
2022/05/26 01:21:13;;;;;;;7.72;6.50;;;;;;;12.14;100.00;155574.19;4878031;29;20033;-75
2022/05/26 01:24:03;;;;;;;11.02;6.78;;;;;;;12.21;100.00;155590.91;4861164;29;20042;-74
2022/05/26 01:26:58;;;;;;;12.05;6.70;;;;;;;12.26;100.00;155605.03;4864888;29;20484;-76
2022/05/26 01:29:48;;;;;;;9.82;6.65;;;;;;;12.12;100.00;155567.78;4880447;29;20595;-76
2022/05/26 01:32:26;;;;;;;10.93;6.85;;;;;;;12.07;100.00;155557.53;4866898;29;20048;-75
2022/05/26 01:35:05;;;;;;;9.43;7.28;;;;;;;11.94;100.00;155524.16;4862141;29;20124;-75
2022/05/26 01:37:48;;;;;;;13.88;8.00;;;;;;;12.01;100.00;155540.81;4867301;29;20041;-76
2022/05/26 01:40:26;;;;;;;13.23;7.85;;;;;;;12.13;100.00;155570.34;4874585;29;20120;-76
2022/05/26 01:43:08;;;;;;;11.30;8.13;;;;;;;12.23;100.00;155596.06;4860569;29;20668;-76
2022/05/26 01:45:34;;;;;;;11.52;8.25;;;;;;;12.20;100.00;155588.31;4869289;29;20041;-75
2022/05/26 01:48:09;;;;;;;12.82;8.45;;;;;;;12.13;100.00;155571.66;4866804;29;20035;-76
2022/05/26 01:51:00;;;;;;;10.07;8.60;;;;;;;12.17;100.00;155581.91;4874123;29;20116;-74
2022/05/26 01:53:42;;;;;;;10.15;8.80;;;;;;;12.25;100.00;155601.19;4868162;29;20069;-77
2022/05/26 01:56:23;;;;;;;14.27;8.57;;;;;;;12.22;100.00;155594.78;4869350;29;20033;-76
2022/05/26 01:59:00;;;;;;;10.82;8.23;;;;;;;12.14;100.00;155574.19;4853273;29;20045;-75
2022/05/26 02:01:31;;;;;;;12.85;8.90;;;;;;;12.15;100.00;155575.47;4871523;29;20077;-76
2022/05/26 02:03:59;;;;;;;12.80;9.32;;;;;;;12.13;100.00;155570.34;4872839;29;20040;-74
2022/05/26 02:06:31;;;;;;;16.85;9.55;;;;;;;12.11;100.00;155565.22;4865282;29;20369;-75
2022/05/26 02:09:08;;;;;;;13.50;9.63;;;;;;;12.18;100.00;155583.19;4859031;29;20049;-75
2022/05/26 02:11:44;;;;;;;13.27;9.57;;;;;;;12.11;100.00;155565.22;4871874;29;20048;-76
2022/05/26 02:14:17;;;;;;;10.98;8.77;;;;;;;12.10;100.00;155563.94;4863958;29;20029;-76
2022/05/26 02:16:49;;;;;;;11.68;9.32;;;;;;;12.16;100.00;155578.06;4872277;29;20033;-75
2022/05/26 02:19:23;;;;;;;12.10;8.93;;;;;;;12.28;100.00;155608.84;4866982;29;20062;-76
2022/05/26 02:22:03;;;;;;;12.93;8.52;;;;;;;12.28;100.00;155608.84;4864099;29;20106;-75
2022/05/26 02:24:52;;;;;;;13.63;9.23;;;;;;;12.30;100.00;155614.03;4873503;29;20055;-74
2022/05/26 02:27:18;;;;;;;12.30;8.63;;;;;;;12.25;100.00;155601.19;4881850;29;20153;-76
2022/05/26 02:29:52;;;;;;;11.35;8.07;;;;;;;12.29;100.00;155611.44;4865121;29;20061;-75
2022/05/26 02:32:21;;;;;;;11.63;8.70;;;;;;;12.27;100.00;155606.31;4880715;29;20036;-75
2022/05/26 02:34:49;;;;;;;11.68;8.65;;;;;;;12.25;100.00;155601.19;4873044;29;20211;-74
2022/05/26 02:37:16;;;;;;;14.45;8.98;;;;;;;12.26;100.00;155603.72;4863805;29;20024;-76
2022/05/26 02:39:42;;;;;;;12.68;8.98;;;;;;;12.38;100.00;155633.28;4873529;29;20037;-77
2022/05/26 02:42:09;;;;;;;11.30;8.10;;;;;;;12.39;100.00;155637.13;4862416;29;20044;-76
2022/05/26 02:44:35;;;;;;;11.45;8.38;;;;;;;12.30;100.00;155612.72;4867132;29;20348;-76
2022/05/26 02:47:35;;;;;;;14.70;8.57;;;;;;;12.21;100.00;155590.91;4864370;29;20504;-77
2022/05/26 02:50:38;;;;;;;14.43;8.27;;;;;;;12.27;100.00;155606.31;4883668;29;20045;-77
2022/05/26 02:53:18;;;;;;;13.75;8.23;;;;;;;12.20;100.00;155589.59;4855656;29;20042;-77
2022/05/26 02:56:23;;;;;;;19.80;8.85;;;;;;;12.32;100.00;155617.84;4893038;29;20068;-76
2022/05/26 02:59:00;;;;;;;14.25;8.80;;;;;;;12.33;100.00;155620.44;4860361;29;20056;-75
2022/05/26 03:01:40;;;;;;;14.35;8.25;;;;;;;12.37;100.00;155631.97;4862990;29;20042;-75
2022/05/26 03:04:12;;;;;;;16.08;8.80;;;;;;;12.37;100.00;155631.97;4860379;29;20496;-74
2022/05/26 03:06:41;;;;;;;;;;;;;;;12.39;100.00;155635.84;4868730;29;20045;-75
2022/05/26 03:09:08;;;;;;;12.18;8.63;;;;;;;12.35;100.00;155625.56;4863564;29;19916;-75
2022/05/26 03:11:52;;;;;;;14.45;9.23;;;;;;;12.42;100.00;155643.56;4861555;29;20041;-76
2022/05/26 03:14:19;;;;;;;16.30;8.15;;;;;;;12.38;100.00;155634.56;4889652;29;20068;-75
2022/05/26 03:16:45;;;;;;;12.10;7.88;;;;;;;12.31;100.00;155616.56;4858815;29;20085;-76
2022/05/26 03:19:11;;;;;;;12.95;8.48;;;;;;;12.31;100.00;155615.31;4852624;29;20033;-76
2022/05/26 03:21:38;;;;;;;16.27;8.75;;;;;;;12.34;100.00;155622.97;4879526;29;20048;-76
2022/05/26 03:24:04;;;;;;;14.45;8.50;;;;;;;12.26;100.00;155603.72;4866271;29;20101;-76
2022/05/26 03:26:30;;;;;;;13.45;8.50;;;;;;;12.19;100.00;155587.06;4866656;29;20048;-75
2022/05/26 03:28:55;;;;;;;14.23;7.93;;;;;;;12.16;100.00;155578.06;4878785;29;20040;-75
2022/05/26 03:31:21;;;;;;;12.48;7.57;;;;;;;12.32;100.00;155617.84;4861728;29;20560;-76
2022/05/26 03:42:03;;;;;;;13.90;7.97;;;;;;;12.44;100.00;155648.69;4860117;29;20121;-77
2022/05/26 03:44:32;;;;;;;14.00;8.75;;;;;;;12.56;100.00;155678.22;4863184;29;20559;-77
2022/05/26 03:46:58;;;;;;;13.05;7.75;;;;;;;12.64;100.00;155700.09;4887175;29;20041;-75
2022/05/26 03:49:24;;;;;;;11.82;8.00;;;;;;;12.55;100.00;155675.69;4855598;29;20435;-76
2022/05/26 03:51:50;;;;;;;21.58;7.72;;;;;;;12.59;100.00;155685.97;4860972;29;20041;-76
2022/05/26 03:54:16;;;;;;;14.10;8.43;;;;;;;12.52;100.00;155669.25;4864442;29;20033;-77
2022/05/26 03:56:41;;;;;;;13.43;7.78;;;;;;;12.60;100.00;155689.81;4870500;29;20032;-77
2022/05/26 03:59:07;;;;;;;14.18;7.85;;;;;;;12.56;100.00;155678.22;4866665;29;20045;-75
2022/05/26 04:01:33;;;;;;;11.57;7.55;;;;;;;12.59;100.00;155685.97;4870523;29;20052;-76
2022/05/26 04:03:58;;;;;;;12.68;7.88;;;;;;;12.53;100.00;155671.81;4853644;29;20041;-76
2022/05/26 04:06:25;;;;;;;11.43;7.72;;;;;;;12.51;100.00;155665.38;4862818;29;20407;-76
2022/05/26 04:08:51;;;;;;;13.15;7.82;;;;;;;12.53;100.00;155671.81;4872027;29;20034;-76
2022/05/26 04:11:17;;;;;;;12.25;7.47;;;;;;;12.54;100.00;155673.09;4863960;29;20039;-76
2022/05/26 04:13:42;;;;;;;12.10;6.82;;;;;;;12.62;100.00;155693.63;4868782;29;20105;-76
2022/05/26 04:16:08;;;;;;;13.43;6.40;;;;;;;12.64;100.00;155700.09;4864022;29;20406;-75
2022/05/26 04:18:34;;;;;;;18.48;6.65;;;;;;;12.70;100.00;155714.22;4871507;29;20045;-76
2022/05/26 04:21:08;;;;;;;14.75;6.18;;;;;;;12.78;100.00;155733.47;4872400;29;20044;-75
2022/05/26 04:23:35;;;;;;;14.80;6.38;;;;;;;12.83;100.00;155747.63;4860482;29;20133;-78
2022/05/26 04:26:02;;;;;;;18.30;6.88;;;;;;;12.84;100.00;155750.16;4871392;29;20559;-76
2022/05/26 04:28:27;;;;;;;12.38;6.20;;;;;;;12.91;100.00;155765.59;4870988;29;20038;-77
2022/05/26 04:30:53;;;;;;;12.05;6.53;;;;;;;12.87;100.00;155756.59;4859723;29;20066;-75
2022/05/26 04:33:19;;;;;;;14.10;6.03;;;;;;;12.85;100.00;155752.75;4864213;29;20045;-76
2022/05/26 04:35:44;;;;;;;19.70;6.10;;;;;;;12.89;100.00;155760.47;4872630;29;20041;-75
2022/05/26 04:38:11;;;;;;;11.95;5.75;;;;;;;12.89;100.00;155760.47;4871349;29;20044;-75
2022/05/26 04:40:36;;;;;;;11.88;5.70;;;;;;;12.95;100.00;155777.16;4871491;29;20835;-78
2022/05/26 04:43:02;;;;;;;9.80;5.88;;;;;;;13.11;100.00;155817.00;4859271;29;20049;-77
2022/05/26 04:45:28;;;;;;;13.63;5.68;;;;;;;13.22;100.00;155845.28;4869916;29;20518;-76
2022/05/26 04:47:54;;;;;;;12.10;5.35;;;;;;;13.39;100.00;155886.41;4881714;29;20388;-76
2022/05/26 04:50:21;;;;;;;13.07;5.47;;;;;;;13.46;100.00;155904.44;4861429;29;20540;-77
2022/05/26 04:52:47;;;;;;;11.63;5.28;;;;;;;13.51;100.00;155917.28;4870585;29;20080;-76
2022/05/26 04:55:13;;;;;;;14.60;5.35;;;;;;;13.55;100.00;155926.28;4867351;29;20088;-76
2022/05/26 04:57:38;;;;;;;14.52;5.57;;;;;;;13.63;100.00;155948.09;4869119;29;20523;-76
2022/05/26 05:00:08;;;;;;;12.35;5.45;;;;;;;13.66;100.00;155953.28;4868238;29;20037;-76
2022/05/26 05:02:33;;;;;;;12.63;4.43;;;;;;;13.60;100.00;155940.44;4859861;29;20044;-75
2022/05/26 05:04:59;;;;;;;12.55;4.70;;;;;;;13.65;100.00;155951.97;4869588;29;20037;-77
2022/05/26 05:07:26;;;;;;;15.55;4.55;;;;;;;13.73;100.00;155971.25;4860306;29;20124;-75
2022/05/26 05:09:51;;;;;;;15.77;4.93;;;;;;;13.67;100.00;155957.13;4866686;29;20037;-76
2022/05/26 05:12:20;;;;;;;11.95;3.95;;;;;;;13.75;100.00;155976.38;4872543;29;20045;-75
2022/05/26 05:14:49;;;;;;;12.05;4.28;;;;;;;13.77;100.00;155981.56;4870432;29;20052;-76
2022/05/26 05:17:16;;;;;;;13.10;4.32;;;;;;;13.79;100.00;155987.97;4864248;29;20072;-76
2022/05/26 05:19:43;;;;;;;18.63;4.53;;;;;;;13.87;100.00;156007.25;4878070;29;20108;-76
2022/05/26 05:22:17;;;;;;;11.98;4.15;;;;;;;13.93;100.00;156022.69;4863764;29;20071;-75
2022/05/26 05:24:55;;;;;;;10.35;3.60;;;;;;;13.89;100.00;156012.41;4863906;29;20124;-75
2022/05/26 05:27:30;;;;;;;12.52;3.90;;;;;;;13.88;100.00;156008.53;4860628;29;20048;-76
2022/05/26 05:30:00;;;;;;;10.63;3.60;;;;;;;13.89;100.00;156012.41;4868190;29;20037;-75
2022/05/26 05:32:31;;;;;;;13.07;3.42;;;;;;;14.01;100.00;156041.97;4868824;29;20048;-78
2022/05/26 05:35:03;;;;;;;10.98;3.72;;;;;;;13.97;100.00;156032.94;4868231;29;20067;-75
2022/05/26 05:37:32;;;;;;;14.63;4.00;;;;;;;14.07;100.00;156056.09;4870626;29;20041;-77
2022/05/26 05:39:59;;;;;;;15.20;3.63;;;;;;;14.12;100.00;156068.97;4879498;29;20044;-76
2022/05/26 05:42:25;;;;;;;18.70;3.75;;;;;;;14.15;100.00;156076.72;4872189;29;20108;-77
2022/05/26 05:44:51;;;;;;;10.38;3.50;;;;;;;14.23;100.00;156097.25;4871325;29;20040;-77
2022/05/26 05:47:17;;;;;;;10.88;2.75;;;;;;;14.34;100.00;156125.56;4865199;29;20041;-76
2022/05/26 05:49:44;;;;;;;11.80;3.15;;;;;;;14.19;100.00;156088.25;4874539;29;20041;-77
2022/05/26 05:52:20;;;;;;;14.98;3.30;;;;;;;14.28;100.00;156110.13;4865782;29;20052;-76
2022/05/26 05:54:46;;;;;;;11.15;2.90;;;;;;;14.36;100.00;156130.69;4862646;29;20046;-77
2022/05/26 05:57:11;;;;;;;13.82;3.40;;;;;;;14.39;100.00;156137.09;4870864;29;20572;-77
2022/05/26 05:59:37;;;;;;;13.15;2.70;;;;;;;14.56;100.00;156179.53;4858285;29;20045;-78
2022/05/26 06:02:04;;;;;;;15.63;3.35;;;;;;;14.77;100.00;156232.38;4871154;29;20043;-78
2022/05/26 06:04:30;;;;;;;11.65;2.72;;;;;;;14.85;100.00;156252.94;4877762;29;20173;-77
2022/05/26 06:06:58;;;;;;;12.35;2.63;;;;;;;14.90;100.00;156265.81;4873010;29;20515;-77
2022/05/26 06:09:24;;;;;;;9.75;2.80;;;;;;;14.85;100.00;156251.66;4870358;29;20564;-77
2022/05/26 06:11:50;;;;;;;14.65;2.90;;;;;;;14.95;100.00;156278.63;4866284;29;20045;-77
2022/05/26 06:14:17;;;;;;;9.25;2.30;;;;;;;14.98;100.00;156286.38;4862651;29;20040;-78
2022/05/26 06:16:44;;;;;;;9.40;2.10;;;;;;;14.96;100.00;156281.22;4865598;29;20033;-76
2022/05/26 06:19:11;;;;;;;16.58;2.83;;;;;;;15.21;100.00;156341.72;4861648;29;20033;-77
2022/05/26 06:21:38;;;;;;;14.50;2.65;;;;;;;15.26;100.00;156354.59;4865255;29;20033;-76
2022/05/26 06:24:04;;;;;;;15.38;2.67;;;;;;;15.21;100.00;156342.97;4880926;29;20149;-75
2022/05/26 06:26:30;;;;;;;8.65;2.47;;;;;;;15.47;100.00;156407.34;4863052;29;20399;-77
2022/05/26 06:37:13;;;;;;;9.90;2.38;;;;;;;15.30;100.00;156364.88;4868419;29;20037;-77
2022/05/26 06:37:14;;;;;;;11.25;2.20;;;;;;;15.36;99.81;156380.28;4888139;29;20033;-76
2022/05/26 06:39:41;;;;;;;8.50;2.08;;;;;;;15.43;100.00;156398.31;4868489;29;20049;-76
2022/05/26 06:42:10;;;;;;;9.38;2.10;;;;;;;15.60;97.03;156440.78;4871413;29;20102;-75
2022/05/26 06:44:44;;;;;;;11.18;2.05;;;;;;;15.67;97.40;156458.81;4885430;29;20451;-77
2022/05/26 06:47:21;;;;;;;8.95;1.80;;;;;;;15.66;98.51;156454.94;4862310;29;20037;-75
2022/05/26 06:49:48;;;;;;;7.80;2.08;;;;;;;15.55;100.00;156429.19;4877500;29;20049;-76
2022/05/26 06:52:15;;;;;;;9.00;2.10;;;;;;;15.38;100.00;156385.44;4864702;29;20042;-76
2022/05/26 06:54:43;;;;;;;10.25;2.17;;;;;;;15.51;100.00;156417.63;4872050;29;20076;-78
2022/05/26 06:57:11;;;;;;;9.60;2.15;;;;;;;15.76;97.89;156482.03;4875206;29;20053;-77
2022/05/26 06:59:37;;;;;;;11.13;1.90;;;;;;;16.07;94.56;156557.97;4869329;29;20045;-77
2022/05/26 07:02:06;;;;;;;15.48;2.10;;;;;;;16.09;92.79;156564.38;4870167;29;20047;-76
2022/05/26 07:04:32;;;;;;;7.38;2.08;;;;;;;16.46;95.02;156655.78;4868935;29;20113;-76
2022/05/26 07:06:58;;;;;;;12.48;2.38;;;;;;;16.34;90.18;156626.16;4863336;29;20082;-77
2022/05/26 07:09:25;;;;;;;7.85;1.92;;;;;;;15.94;91.61;156527.06;4869311;29;20068;-77
2022/05/26 07:11:51;;;;;;;8.15;1.75;;;;;;;15.77;98.48;156483.31;4868767;29;20041;-77
2022/05/26 07:14:17;;;;;;;10.38;2.10;;;;;;;15.37;97.34;156382.88;4862588;29;20179;-76
2022/05/26 07:16:44;;;;;;;10.65;1.75;;;;;;;15.15;100.00;156328.81;4871609;29;20116;-76
2022/05/26 07:19:15;;;;;;;10.60;1.80;;;;;;;15.03;99.61;156297.97;4873901;29;20052;-77
2022/05/26 07:21:49;;;;;;;9.52;1.60;;;;;;;14.88;98.30;156259.34;4870854;29;20097;-79
2022/05/26 07:24:18;;;;;;;5.05;1.20;;;;;;;14.93;98.50;156272.22;4881552;29;20047;-77
2022/05/26 07:26:44;;;;;;;10.00;1.98;;;;;;;15.01;96.23;156292.78;4865988;29;20084;-76
2022/05/26 07:29:10;;;;;;;9.00;1.80;;;;;;;15.02;94.87;156295.38;4868145;29;20047;-78
2022/05/26 07:31:36;;;;;;;8.00;1.55;;;;;;;15.14;93.69;156324.97;4868713;29;20124;-77
2022/05/26 07:34:02;;;;;;;8.10;1.50;;;;;;;15.68;90.62;156460.09;4872083;29;20136;-78
2022/05/26 07:42:02;;;;;;;9.88;1.88;;;;;;;16.02;87.49;156546.34;4869477;29;20045;-77
2022/05/26 07:44:29;;;;;;;10.00;1.53;;;;;;;15.67;81.37;156457.47;4866938;29;20033;-76
2022/05/26 07:46:56;;;;;;;9.85;1.60;;;;;;;15.78;91.24;156485.84;4873710;29;20326;-78
2022/05/26 07:49:22;;;;;;;8.52;1.67;;;;;;;16.35;86.68;156628.78;4872026;29;20408;-78
2022/05/26 07:51:48;;;;;;;9.68;1.73;;;;;;;16.47;82.96;156659.66;4873785;29;20037;-77
2022/05/26 07:54:14;;;;;;;9.20;1.52;;;;;;;16.14;82.89;156577.28;4873410;29;20040;-77
2022/05/26 07:56:40;;;;;;;9.20;1.90;;;;;;;16.14;84.12;156577.28;4864343;29;20060;-79
2022/05/26 07:59:07;;;;;;;8.77;1.50;;;;;;;16.23;81.64;156597.84;4882949;29;20604;-77
2022/05/26 08:01:33;;;;;;;8.00;1.15;;;;;;;15.93;78.77;156524.44;4869042;29;20089;-77
2022/05/26 08:03:59;;;;;;;5.30;1.23;;;;;;;15.73;80.02;156474.28;4866356;29;20097;-78
2022/05/26 08:06:25;;;;;;;8.15;1.58;;;;;;;16.10;79.73;156566.94;4869606;29;20382;-79
2022/05/26 08:08:51;;;;;;;5.60;1.10;;;;;;;16.06;72.39;156556.66;4872193;29;20041;-77
2022/05/26 08:11:16;;;;;;;5.93;1.20;;;;;;;16.28;74.05;156612.00;4871418;29;20799;-77
2022/05/26 08:13:42;;;;;;;15.90;1.20;;;;;;;16.79;71.14;156739.47;4864975;29;20050;-78
2022/05/26 08:16:08;;;;;;;6.60;1.40;;;;;;;16.74;68.92;156726.59;4873893;29;20057;-77
2022/05/26 08:18:35;;;;;;;6.93;1.20;;;;;;;16.97;76.77;156783.31;4870201;29;20051;-79
2022/05/26 08:21:17;;;;;;;10.73;1.30;;;;;;;17.26;73.13;156858.03;4880822;29;20124;-77
2022/05/26 08:23:43;;;;;;;4.15;0.98;;;;;;;17.06;72.61;156806.50;4862289;29;20047;-77
2022/05/26 08:26:09;;;;;;;3.58;0.98;;;;;;;16.64;71.49;156700.84;4879840;29;20041;-76
2022/05/26 08:28:35;;;;;;;4.55;1.10;;;;;;;16.12;70.87;156570.81;4878839;29;20476;-77
2022/05/26 08:31:00;;;;;;;5.20;0.98;;;;;;;16.49;74.94;156663.50;4871785;29;20049;-76
2022/05/26 08:33:27;;;;;;;5.50;1.00;;;;;;;16.77;67.40;156734.34;4867894;29;20041;-78
2022/05/26 08:36:06;;;;;;;7.80;1.15;;;;;;;16.38;66.52;156636.47;4885234;29;20074;-77
2022/05/26 08:38:32;;;;;;;6.90;1.23;;;;;;;16.36;65.51;156631.31;4874162;29;20041;-77
2022/05/26 08:40:59;;;;;;;5.28;0.93;;;;;;;16.57;69.72;156682.81;4869146;29;20038;-78
2022/05/26 08:43:48;;;;;;;7.72;0.80;;;;;;;16.61;68.10;156693.13;4880080;29;20115;-76
2022/05/26 08:46:17;;;;;;;7.53;0.70;;;;;;;16.65;69.24;156703.41;4853440;29;20053;-77
2022/05/26 08:49:03;;;;;;;5.72;0.68;;;;;;;17.01;73.74;156793.59;4865142;29;20041;-79
2022/05/26 08:51:58;;;;;;;7.57;1.00;;;;;;;16.79;75.70;156738.22;4866001;29;20053;-78
2022/05/26 08:54:26;;;;;;;7.40;0.80;;;;;;;16.54;64.25;156676.41;4875258;29;20074;-78
2022/05/26 08:56:55;;;;;;;11.50;1.10;;;;;;;16.43;72.92;156649.34;4867840;29;20073;-78
2022/05/26 08:59:25;;;;;;;3.70;1.00;;;;;;;16.27;71.17;156608.16;4865703;29;20025;-76
2022/05/26 09:01:53;;;;;;;4.93;0.93;;;;;;;16.13;69.07;156574.69;4864801;29;20090;-76
2022/05/26 09:04:18;;;;;;;3.05;0.68;;;;;;;16.08;77.45;156561.78;4867690;29;20045;-76
2022/05/26 09:15:06;;;;;;;4.38;0.80;;;;;;;16.13;70.62;156574.69;4875724;29;20516;-79
2022/05/26 09:17:32;;;;;;;4.47;1.15;;;;;;;16.15;77.91;156578.53;4874484;29;20124;-77
2022/05/26 09:20:00;;;;;;;4.50;0.80;;;;;;;16.10;73.02;156566.94;4874042;29;20120;-80
2022/05/26 09:22:39;;;;;;;4.70;0.82;;;;;;;16.39;68.40;156639.06;4865221;29;20252;-81
2022/05/26 09:25:10;;;;;;;2.63;0.60;;;;;;;16.45;64.96;156653.22;4876846;29;20120;-79
2022/05/26 09:27:37;;;;;;;10.48;1.30;;;;;;;16.37;68.90;156633.91;4872700;29;20093;-79
2022/05/26 09:30:32;;;;;;;5.25;0.80;;;;;;;16.80;68.03;156742.09;4868157;29;20092;-78
2022/05/26 09:32:58;;;;;;;4.78;0.85;;;;;;;17.50;63.18;156917.31;4881249;29;20041;-77
2022/05/26 09:35:34;;;;;;;3.25;0.57;;;;;;;17.54;65.50;156926.28;4840231;29;20452;-80
2022/05/26 09:38:03;;;;;;;3.65;0.70;;;;;;;17.58;64.94;156937.91;4872678;29;20079;-79
2022/05/26 09:40:32;;;;;;;5.32;1.10;;;;;;;17.38;64.23;156887.63;4863894;29;20096;-77
2022/05/26 09:43:04;;;;;;;6.75;0.75;;;;;;;17.83;64.03;157001.00;4874563;29;20116;-77
2022/05/26 09:45:41;;;;;;;5.30;0.60;;;;;;;17.81;71.00;156995.88;4865840;29;20037;-78
2022/05/26 09:48:32;;;;;;;4.10;0.77;;;;;;;17.63;63.36;156949.47;4871199;29;20069;-79
2022/05/26 09:51:20;;;;;;;4.03;0.75;;;;;;;17.29;64.13;156864.44;4872990;29;20052;-78
2022/05/26 09:53:46;;;;;;;2.65;0.68;;;;;;;16.91;62.00;156770.47;4870611;29;20181;-77
2022/05/26 09:56:26;;;;;;;3.38;0.93;;;;;;;17.10;64.43;156816.78;4886200;29;20111;-76
2022/05/26 09:58:52;;;;;;;5.72;0.60;;;;;;;17.61;61.71;156945.66;4876692;29;20068;-79
2022/05/26 10:01:20;;;;;;;4.90;0.80;;;;;;;18.12;60.35;157073.25;4870000;29;20033;-79
2022/05/26 10:04:12;;;;;;;4.65;0.60;;;;;;;18.04;62.78;157052.63;4868316;29;20067;-76
2022/05/26 10:06:57;;;;;;;2.97;0.55;;;;;;;17.94;62.45;157026.88;4868701;29;20044;-77
2022/05/26 10:09:44;;;;;;;3.85;0.95;;;;;;;17.67;67.52;156959.81;4860485;29;20605;-77
2022/05/26 10:12:27;;;;;;;6.07;0.80;;;;;;;17.39;69.33;156890.22;4873651;29;20068;-77
2022/05/26 10:15:11;;;;;;;;;;;;;;;17.30;68.14;156868.31;4872003;29;20038;-77
2022/05/26 10:17:46;;;;;;;2.58;0.68;;;;;;;16.96;66.17;156782.03;4886577;29;19919;-77
2022/05/26 10:20:27;;;;;;;8.82;1.00;;;;;;;17.00;66.99;156792.31;4862192;29;20037;-75
2022/05/26 10:23:23;;;;;;;2.40;0.70;;;;;;;16.96;66.42;156780.75;4873913;29;20045;-77
2022/05/26 10:25:56;;;;;;;4.07;0.80;;;;;;;17.69;65.04;156966.25;4888883;29;20076;-78
2022/05/26 10:28:38;;;;;;;5.57;1.10;;;;;;;17.95;61.22;157030.75;4866930;29;20121;-77
2022/05/26 10:31:25;;;;;;;10.18;0.93;;;;;;;18.02;65.79;157047.47;4882457;29;20059;-77
2022/05/26 10:34:06;;;;;;;1.83;0.65;;;;;;;17.86;70.01;157007.53;4863089;29;20038;-78
2022/05/26 10:36:51;;;;;;;8.10;1.20;;;;;;;17.84;69.72;157003.66;4862413;29;20073;-76
2022/05/26 10:40:07;;;;;;;3.17;1.00;;;;;;;17.63;71.57;156949.47;4861625;29;20033;-77
2022/05/26 10:43:04;;;;;;;4.15;0.77;;;;;;;17.73;64.40;156975.28;4847235;29;20056;-78
2022/05/26 10:45:47;;;;;;;6.25;0.90;;;;;;;17.63;63.04;156949.47;4858545;29;20453;-79
2022/05/26 10:48:46;;;;;;;6.97;1.10;;;;;;;17.51;62.95;156919.84;4862710;29;20045;-76
2022/05/26 10:51:30;;;;;;;4.95;1.05;;;;;;;17.48;64.44;156913.44;4875387;29;20037;-77
2022/05/26 10:53:58;;;;;;;7.00;1.02;;;;;;;17.30;65.62;156867.03;4878936;29;20041;-79
2022/05/26 10:56:27;;;;;;;8.43;1.10;;;;;;;17.29;64.13;156865.75;4868035;29;20396;-79
2022/05/26 10:59:03;;;;;;;5.93;1.00;;;;;;;17.85;63.67;157004.94;4864392;29;20079;-77
2022/05/26 11:01:35;;;;;;;5.28;0.88;;;;;;;18.61;64.28;157197.00;4865640;29;20138;-76
2022/05/26 11:04:22;;;;;;;9.25;1.17;;;;;;;18.55;68.76;157181.50;4876744;29;20063;-76
2022/05/26 11:06:50;;;;;;;5.10;0.82;;;;;;;17.86;62.26;157007.53;4873169;29;20049;-78
2022/05/26 11:09:32;;;;;;;6.47;1.00;;;;;;;17.44;63.99;156901.81;4868598;29;20044;-77
2022/05/26 11:11:59;;;;;;;;;;;;;;;17.10;66.74;156818.13;4865941;29;20059;-79
2022/05/26 11:17:42;;;;;;;5.38;0.77;;;;;;;16.99;70.99;156788.47;4868091;29;20044;-77
2022/05/26 11:20:18;;;;;;;5.32;1.20;;;;;;;16.99;73.06;156789.78;4870575;29;20048;-76
2022/05/26 11:22:46;;;;;;;4.22;1.02;;;;;;;16.79;73.53;156739.47;4862134;29;20045;-77
2022/05/26 11:25:15;;;;;;;6.40;1.00;;;;;;;17.02;75.20;156797.47;4873071;29;20036;-78
2022/05/26 11:27:50;;;;;;;4.63;0.88;;;;;;;17.41;76.96;156895.38;4873072;29;20033;-79
2022/05/26 11:36:40;;;;;;;5.53;1.00;;;;;;;18.79;64.88;157240.81;4858972;29;20146;-78
2022/05/26 11:39:16;;;;;;;6.95;0.90;;;;;;;18.67;59.71;157211.19;4868759;29;20662;-77
2022/05/26 11:41:56;;;;;;;5.47;0.73;;;;;;;18.18;62.90;157088.72;4870250;29;20515;-76
2022/05/26 11:44:42;;;;;;;4.85;0.77;;;;;;;17.94;66.25;157026.88;4862470;29;20037;-77
2022/05/26 11:47:26;;;;;;;7.93;1.33;;;;;;;17.36;65.54;156881.22;4868632;29;20509;-77
2022/05/26 11:49:52;;;;;;;4.25;0.82;;;;;;;16.90;74.64;156767.88;4861043;29;20124;-78
2022/05/26 11:52:26;;;;;;;4.70;0.80;;;;;;;16.60;73.61;156690.56;4868226;29;20140;-76
2022/05/26 11:54:52;;;;;;;5.15;0.98;;;;;;;16.29;72.13;156613.28;4877635;29;20047;-79
2022/05/26 11:57:35;;;;;;;3.25;1.00;;;;;;;16.14;67.64;156575.94;4866934;29;20022;-78
2022/05/26 12:00:39;;;;;;;2.33;0.93;;;;;;;15.93;68.45;156524.44;4864981;29;20044;-77
2022/05/26 12:03:21;;;;;;;6.13;1.10;;;;;;;15.68;76.50;156461.34;4871271;29;20061;-77
2022/05/26 12:05:54;;;;;;;4.65;0.90;;;;;;;15.59;79.18;156438.19;4864114;29;20499;-77
2022/05/26 12:08:28;;;;;;;4.22;0.77;;;;;;;15.58;80.10;156435.63;4870843;29;20041;-78
2022/05/26 12:10:56;;;;;;;5.55;1.00;;;;;;;15.71;76.06;156467.81;4863525;29;20129;-77
2022/05/26 12:13:25;;;;;;;5.03;1.00;;;;;;;15.79;82.71;156488.44;4873496;29;20478;-77
2022/05/26 12:16:08;;;;;;;4.53;0.90;;;;;;;15.86;78.63;156506.47;4860107;29;20045;-78